createdAt,value
2019-03-10T00:01:01.775Z,12.30
2019-03-10T00:06:04.343Z,12.30
2019-03-10T00:11:07.196Z,12.30
2019-03-10T00:16:08.648Z,12.20
2019-03-10T00:21:09.981Z,12.20
2019-03-10T00:26:11.281Z,12.20
2019-03-10T00:31:13.691Z,12.20
2019-03-10T00:36:16.324Z,12.20
2019-03-10T00:41:47.822Z,12.20
2019-03-10T00:47:32.146Z,12.10
2019-03-10T00:52:41.963Z,12.10
2019-03-10T00:57:44.403Z,12.00
2019-03-10T01:02:46.676Z,12.00
2019-03-10T01:07:49.139Z,12.00
2019-03-10T01:12:51.603Z,11.90
2019-03-10T01:17:52.812Z,12.00
2019-03-10T01:22:54.144Z,12.00
2019-03-10T01:27:56.503Z,12.00
2019-03-10T01:33:12.036Z,11.90
2019-03-10T01:38:15.552Z,11.90
2019-03-10T01:43:18.057Z,11.90
2019-03-10T01:48:20.391Z,11.90
2019-03-10T01:53:25.806Z,11.80
2019-03-10T01:58:28.991Z,11.80
2019-03-10T02:03:31.915Z,11.70
2019-03-10T02:08:35.556Z,11.80
2019-03-10T02:13:37.887Z,11.60
2019-03-10T02:18:40.200Z,11.50
2019-03-10T02:23:44.319Z,11.40
2019-03-10T02:28:46.939Z,11.30
2019-03-10T02:33:50.139Z,11.20
2019-03-10T02:38:53.221Z,11.10
2019-03-10T02:43:55.563Z,11.10
2019-03-10T02:48:57.999Z,11.00
2019-03-10T02:54:00.377Z,11.00
2019-03-10T02:59:02.700Z,11.00
2019-03-10T03:04:04.994Z,11.10
2019-03-10T03:09:07.808Z,11.20
2019-03-10T03:14:11.660Z,11.20
2019-03-10T03:19:14.201Z,11.30
2019-03-10T03:24:16.693Z,11.30
2019-03-10T03:29:19.095Z,11.50
2019-03-10T03:34:21.505Z,11.10
2019-03-10T03:39:31.085Z,11.50
2019-03-10T03:44:33.591Z,11.50
2019-03-10T03:49:35.970Z,11.60
2019-03-10T03:54:38.370Z,11.80
2019-03-10T03:59:40.724Z,11.80
2019-03-10T04:04:43.091Z,11.80
2019-03-10T04:09:47.041Z,11.80
2019-03-10T04:14:50.571Z,11.70
2019-03-10T04:19:52.991Z,11.70
2019-03-10T04:24:55.358Z,11.60
2019-03-10T04:29:57.632Z,11.60
2019-03-10T04:34:59.984Z,11.60
2019-03-10T04:40:02.671Z,11.50
2019-03-10T04:45:05.213Z,11.40
2019-03-10T04:50:07.571Z,11.30
2019-03-10T04:55:32.501Z,11.20
2019-03-10T05:00:36.654Z,11.20
2019-03-10T05:05:39.020Z,11.10
2019-03-10T05:10:41.455Z,11.10
2019-03-10T05:15:43.691Z,11.00
2019-03-10T05:20:46.105Z,11.00
2019-03-10T05:25:48.663Z,10.90
2019-03-10T05:30:51.118Z,11.00
2019-03-10T05:35:53.472Z,11.00
2019-03-10T05:40:57.275Z,11.00
2019-03-10T05:45:59.677Z,11.10
2019-03-10T05:51:02.034Z,11.10
2019-03-10T05:56:04.427Z,11.10
2019-03-10T06:01:07.259Z,11.10
2019-03-10T06:06:09.587Z,11.10
2019-03-10T06:11:12.046Z,11.10
2019-03-10T06:16:15.059Z,11.00
2019-03-10T06:21:17.399Z,11.00
2019-03-10T06:26:19.833Z,10.90
2019-03-10T06:31:22.173Z,10.80
2019-03-10T06:36:24.561Z,10.60
2019-03-10T06:41:27.083Z,10.60
2019-03-10T06:46:29.447Z,10.50
2019-03-10T06:51:31.825Z,10.50
2019-03-10T06:56:34.195Z,10.50
2019-03-10T07:01:36.444Z,10.50
2019-03-10T07:06:38.863Z,10.50
2019-03-10T07:11:41.419Z,10.50
2019-03-10T07:16:43.739Z,10.50
2019-03-10T07:21:46.007Z,10.50
2019-03-10T07:26:48.296Z,10.60
2019-03-10T07:32:17.964Z,10.70
2019-03-10T07:37:30.988Z,10.80
2019-03-10T07:42:51.601Z,10.80
2019-03-10T07:48:13.492Z,10.80
2019-03-10T07:53:34.475Z,10.80
2019-03-10T07:59:09.467Z,10.70
2019-03-10T08:04:31.551Z,10.60
2019-03-10T08:09:45.151Z,10.60
2019-03-10T08:15:23.258Z,10.70
2019-03-10T08:20:34.329Z,10.60
2019-03-10T08:26:00.936Z,10.80
2019-03-10T08:31:22.872Z,10.90
2019-03-10T08:36:39.484Z,11.00
2019-03-10T08:41:59.983Z,11.10
2019-03-10T08:47:18.569Z,11.10
2019-03-10T08:52:30.264Z,11.00
2019-03-10T08:58:07.567Z,10.90
2019-03-10T09:03:19.468Z,10.90
2019-03-10T09:08:34.376Z,10.90
2019-03-10T09:13:48.759Z,11.00
2019-03-10T09:19:19.915Z,11.10
2019-03-10T09:24:37.605Z,11.30
2019-03-10T09:29:54.502Z,11.30
2019-03-10T09:35:28.311Z,11.40
2019-03-10T09:40:48.357Z,11.50
2019-03-10T09:46:01.872Z,11.70
2019-03-10T09:51:17.088Z,11.80
2019-03-10T09:56:42.499Z,12.10
2019-03-10T10:01:51.664Z,12.10
2019-03-10T10:07:12.496Z,12.30
2019-03-10T10:12:23.732Z,12.40
2019-03-10T10:17:49.277Z,12.60
2019-03-10T10:23:14.087Z,12.80
2019-03-10T10:28:34.538Z,13.10
2019-03-10T10:33:55.226Z,13.60
2019-03-10T10:39:15.927Z,13.80
2019-03-10T10:44:26.291Z,13.90
2019-03-10T10:49:54.601Z,14.10
2019-03-10T10:55:17.041Z,14.30
2019-03-10T11:00:36.550Z,14.40
2019-03-10T11:05:55.347Z,14.30
2019-03-10T11:11:16.333Z,14.10
2019-03-10T11:16:40.601Z,14.00
2019-03-10T11:22:00.019Z,13.90
2019-03-10T11:27:31.883Z,13.70
2019-03-10T11:32:47.066Z,13.70
2019-03-10T11:38:07.757Z,13.90
2019-03-10T11:43:33.108Z,14.00
2019-03-10T11:48:45.679Z,14.10
2019-03-10T11:54:00.131Z,14.30
2019-03-10T11:59:09.608Z,15.20
2019-03-10T12:04:24.042Z,15.30
2019-03-10T12:09:26.825Z,15.20
2019-03-10T12:14:29.226Z,15.40
2019-03-10T12:19:31.672Z,15.40
2019-03-10T12:24:34.101Z,15.50
2019-03-10T12:29:41.911Z,15.70
2019-03-10T12:34:44.239Z,15.90
2019-03-10T12:39:46.680Z,16.30
2019-03-10T12:44:49.079Z,16.20
2019-03-10T12:49:53.139Z,16.20
2019-03-10T12:54:55.577Z,16.00
2019-03-10T12:59:59.616Z,16.00
2019-03-10T13:05:03.530Z,16.10
2019-03-10T13:10:07.105Z,16.00
2019-03-10T13:15:09.636Z,16.00
2019-03-10T13:20:13.203Z,15.50
2019-03-10T13:25:15.564Z,15.40
2019-03-10T13:30:18.146Z,15.50
2019-03-10T13:35:20.531Z,16.00
2019-03-10T13:40:23.671Z,16.20
2019-03-10T13:45:26.434Z,15.70
2019-03-10T13:50:45.557Z,14.50
2019-03-10T13:55:48.744Z,13.90
2019-03-10T14:00:51.598Z,13.70
2019-03-10T14:05:54.620Z,13.80
2019-03-10T14:10:57.441Z,14.10
2019-03-10T14:16:01.979Z,14.60
2019-03-10T14:21:04.889Z,14.50
2019-03-10T14:26:08.880Z,14.40
2019-03-10T14:31:11.816Z,13.90
2019-03-10T14:36:14.308Z,13.60
2019-03-10T14:41:16.907Z,13.60
2019-03-10T14:46:20.801Z,13.30
2019-03-10T14:51:24.321Z,13.00
2019-03-10T14:56:26.912Z,13.30
2019-03-10T15:01:29.799Z,13.50
2019-03-10T15:06:32.436Z,13.40
2019-03-10T15:11:35.609Z,14.50
2019-03-10T15:16:38.083Z,15.10
2019-03-10T15:21:40.903Z,15.60
2019-03-10T15:26:45.877Z,16.20
2019-03-10T15:31:48.280Z,16.60
2019-03-10T15:36:51.219Z,17.00
2019-03-10T15:41:53.884Z,17.30
2019-03-10T15:46:56.784Z,17.40
2019-03-10T15:51:59.526Z,16.60
2019-03-10T15:57:01.979Z,16.50
2019-03-10T16:02:04.604Z,15.90
2019-03-10T16:19:15.027Z,16.50
2019-03-10T16:24:18.695Z,16.60
2019-03-10T16:29:21.804Z,16.70
2019-03-10T16:34:24.272Z,16.20
2019-03-10T16:39:26.868Z,15.70
2019-03-10T16:44:29.237Z,15.70
2019-03-10T16:49:31.883Z,15.30
2019-03-10T16:54:34.353Z,14.80
2019-03-10T16:59:36.923Z,14.40
2019-03-10T17:04:38.131Z,14.20
2019-03-10T17:09:39.579Z,13.90
2019-03-10T17:14:41.979Z,13.70
2019-03-10T17:19:44.484Z,13.60
2019-03-10T17:24:46.964Z,13.40
2019-03-10T17:29:49.639Z,13.40
2019-03-10T17:34:52.132Z,13.30
2019-03-10T17:39:55.096Z,13.30
2019-03-10T17:44:58.703Z,13.30
2019-03-10T17:50:00.961Z,13.30
2019-03-10T17:55:03.813Z,13.30
2019-03-10T18:00:07.839Z,13.30
2019-03-10T18:05:10.924Z,13.20
2019-03-10T18:10:13.556Z,13.20
2019-03-10T18:15:16.616Z,13.00
2019-03-10T18:20:19.723Z,12.90
2019-03-10T18:25:23.773Z,12.80
2019-03-10T18:30:27.547Z,12.60
2019-03-10T18:35:32.371Z,12.40
2019-03-10T18:40:36.602Z,12.30
2019-03-10T18:45:39.539Z,12.20
2019-03-10T18:50:43.004Z,12.20
2019-03-10T18:55:46.845Z,12.00
2019-03-10T19:00:53.620Z,11.90
2019-03-10T19:05:59.813Z,11.80
2019-03-10T19:11:04.229Z,11.60
2019-03-10T19:16:07.836Z,11.50
2019-03-10T19:21:13.424Z,11.50
2019-03-10T19:26:20.097Z,11.40
2019-03-10T19:31:23.510Z,11.30
2019-03-10T19:36:28.566Z,11.20
2019-03-10T19:41:36.180Z,11.20
2019-03-10T19:46:40.199Z,11.10
2019-03-10T19:51:45.588Z,11.10
2019-03-10T19:56:50.595Z,11.20
2019-03-10T20:01:57.613Z,11.40
2019-03-10T20:07:02.414Z,11.20
2019-03-10T20:12:07.054Z,10.10
2019-03-10T20:17:14.028Z,9.60
2019-03-10T20:22:19.084Z,9.30
2019-03-10T20:27:23.229Z,9.20
2019-03-10T20:32:28.444Z,9.10
2019-03-10T20:37:33.339Z,9.00
2019-03-10T20:42:38.161Z,9.00
2019-03-10T20:47:41.927Z,9.00
2019-03-10T20:52:49.442Z,8.90
2019-03-10T20:57:53.081Z,8.90
2019-03-10T21:02:57.328Z,8.80
2019-03-10T21:08:01.292Z,8.90
2019-03-10T21:13:05.238Z,9.10
2019-03-10T21:18:09.640Z,9.20
2019-03-10T21:23:15.202Z,9.40
2019-03-10T21:28:19.584Z,7.80
2019-03-10T21:33:22.055Z,7.00
2019-03-10T21:38:24.530Z,6.60
2019-03-10T21:43:27.012Z,6.30
2019-03-10T21:48:29.476Z,6.30
2019-03-10T21:53:32.057Z,6.30
2019-03-10T21:58:34.638Z,6.40
2019-03-10T22:03:37.019Z,6.50
2019-03-10T22:08:39.801Z,6.60
2019-03-10T22:13:46.594Z,6.60
2019-03-10T22:18:46.760Z,6.60
2019-03-10T22:23:58.912Z,6.60
2019-03-10T22:28:55.541Z,6.50
2019-03-10T22:33:59.343Z,6.40
2019-03-10T22:39:01.752Z,6.30
2019-03-10T22:44:06.255Z,6.10
2019-03-10T22:49:08.737Z,5.90
2019-03-10T22:54:11.857Z,5.70
2019-03-10T22:59:14.651Z,5.70
2019-03-10T23:04:17.071Z,5.50
2019-03-10T23:09:19.544Z,5.40
2019-03-10T23:14:22.060Z,5.30
2019-03-10T23:19:25.867Z,5.10
2019-03-10T23:24:28.931Z,4.80
2019-03-10T23:29:31.508Z,4.60
2019-03-10T23:34:35.049Z,4.50
2019-03-10T23:39:37.934Z,4.60
2019-03-10T23:44:40.396Z,4.60
2019-03-10T23:49:43.918Z,4.60
2019-03-10T23:54:46.457Z,4.60
2019-03-10T23:59:49.380Z,4.70
